This is the latest recevied weather packets stored in our database for station/object OE6ATD-13. If no packets are shown the sender has not sent any weather packets the latest 10 day(s).
| Time | Temp. | Humidity | Pressure | Rain* | Wind** | Luminosity | Snow |
|---|---|---|---|---|---|---|---|
| 1777617929 | 12.22° C | 38% | 1028 hPa | 0 mm | - | 372 W/m² | - |
| 1777617325 | 11.67° C | 40% | 1027.9 hPa | 0 mm | - | 344 W/m² | - |
| 1777616721 | 11.11° C | 42% | 1027.9 hPa | 0 mm | - | 312 W/m² | - |
| 1777616117 | 10° C | 43% | 1027.8 hPa | 0 mm | - | 282 W/m² | - |
| 1777615527 | 9.44° C | 48% | 1027.8 hPa | 0 mm | - | 254 W/m² | - |
| 1777614923 | 8.89° C | 50% | 1027.6 hPa | 0 mm | - | 224 W/m² | - |
| 1777614318 | 7.78° C | 52% | 1027.7 hPa | 0 mm | - | 195 W/m² | - |
| 1777613729 | 7.22° C | 59% | 1027.7 hPa | 0 mm | - | 166 W/m² | - |
| 1777613125 | 6.67° C | 62% | 1027.7 hPa | 0 mm | - | 138 W/m² | - |
| 1777611917 | 5° C | 70% | 1027.6 hPa | 0 mm | - | 89 W/m² | - |
| 1777610723 | 2.78° C | 74% | 1027.6 hPa | 0 mm | - | 49 W/m² | - |
| 1777610119 | 2.22° C | 75% | 1027.6 hPa | 0 mm | - | 29 W/m² | - |
| 1777609530 | 1.67° C | 76% | 1027.5 hPa | 0 mm | - | 18 W/m² | - |
| 1777608926 | 1.11° C | 77% | 1027.5 hPa | 0 mm | - | 11 W/m² | - |
| 1777608320 | 1.11° C | 77% | 1027.5 hPa | 0 mm | - | 6 W/m² | - |
| 1777607716 | 1.11° C | 77% | 1027.4 hPa | 0 mm | - | 2 W/m² | - |
| 1777607127 | 1.11° C | 76% | 1027.4 hPa | 0 mm | - | 0 W/m² | - |
| 1777606523 | 1.11° C | 74% | 1027.5 hPa | 0 mm | - | 0 W/m² | - |
| 1777605919 | 1.11° C | 75% | 1027.5 hPa | 0 mm | - | 0 W/m² | - |
| 1777605330 | 1.11° C | 74% | 1027.4 hPa | 0 mm | - | 0 W/m² | - |
| 1777604726 | 1.67° C | 75% | 1027.4 hPa | 0 mm | - | 0 W/m² | - |
| 1777604120 | 1.67° C | 73% | 1027.5 hPa | 0 mm | - | 0 W/m² | - |
| 1777603516 | 1.11° C | 71% | 1027.4 hPa | 0 mm | - | 0 W/m² | - |
| 1777602926 | 1.67° C | 70% | 1027.4 hPa | 0 mm | - | 0 W/m² | - |
| 1777602323 | 1.67° C | 70% | 1027.5 hPa | 0 mm | - | 0 W/m² | - |
* Rain latest hour (hover to see other rain measurements)
** Current wind speed in m/s (hover to see current wind gust speed)